createdAt,value
2023-05-20T00:02:43.584Z,10.70
2023-05-20T00:06:41.191Z,9.90
2023-05-20T00:10:40.651Z,12.70
2023-05-20T00:14:38.907Z,11.90
2023-05-20T00:18:38.661Z,11.60
2023-05-20T00:22:36.494Z,11.40
2023-05-20T00:26:36.558Z,11.20
2023-05-20T00:30:34.418Z,13.00
2023-05-20T00:34:34.629Z,10.50
2023-05-20T00:38:32.423Z,15.00
2023-05-20T00:42:31.620Z,9.40
2023-05-20T00:45:22.370Z,9.90
2023-05-20T00:48:10.668Z,13.30
2023-05-20T00:50:58.572Z,13.00
2023-05-20T00:53:46.535Z,10.60
2023-05-20T00:56:34.929Z,10.90
2023-05-20T00:59:22.895Z,10.00
2023-05-20T01:02:10.924Z,10.40
2023-05-20T01:04:59.048Z,12.90
2023-05-20T01:07:47.680Z,11.40
2023-05-20T01:10:36.888Z,13.70
2023-05-20T01:13:27.660Z,11.40
2023-05-20T01:16:17.618Z,13.60
2023-05-20T01:19:07.896Z,12.90
2023-05-20T01:21:56.310Z,10.60
2023-05-20T01:24:45.552Z,10.10
2023-05-20T01:27:33.454Z,13.90
2023-05-20T01:30:21.552Z,12.90
2023-05-20T01:33:11.216Z,12.50
2023-05-20T01:35:59.325Z,12.80
2023-05-20T01:38:47.496Z,15.80
2023-05-20T01:41:35.525Z,12.40
2023-05-20T01:44:23.679Z,11.70
2023-05-20T01:47:12.773Z,12.20
2023-05-20T01:50:00.818Z,13.40
2023-05-20T01:52:49.178Z,10.60
2023-05-20T01:55:37.256Z,13.60
2023-05-20T01:58:25.993Z,12.40
2023-05-20T02:01:13.899Z,9.70
2023-05-20T02:04:04.163Z,12.20
2023-05-20T02:06:52.216Z,15.70
2023-05-20T02:09:40.372Z,13.90
2023-05-20T02:12:28.588Z,10.90
2023-05-20T02:15:19.015Z,11.00
2023-05-20T02:18:07.914Z,11.30
2023-05-20T02:20:55.909Z,12.20
2023-05-20T02:23:43.874Z,13.00
2023-05-20T02:26:32.164Z,10.60
2023-05-20T02:29:21.676Z,14.90
2023-05-20T02:32:12.049Z,10.80
2023-05-20T02:35:00.143Z,11.60
2023-05-20T02:37:49.238Z,10.10
2023-05-20T02:40:37.288Z,11.20
2023-05-20T02:43:25.824Z,13.70
2023-05-20T02:46:15.456Z,10.10
2023-05-20T02:49:03.507Z,9.60
2023-05-20T02:51:51.784Z,11.60
2023-05-20T02:54:40.306Z,11.70
2023-05-20T02:57:28.667Z,12.80
2023-05-20T03:00:18.378Z,8.60
2023-05-20T03:03:07.406Z,11.40
2023-05-20T03:05:55.304Z,11.60
2023-05-20T03:08:45.033Z,12.00
2023-05-20T03:11:33.019Z,9.50
2023-05-20T03:14:21.094Z,10.80
2023-05-20T03:17:09.365Z,10.40
2023-05-20T03:19:57.293Z,11.00
2023-05-20T03:22:45.972Z,10.60
2023-05-20T03:25:35.450Z,8.90
2023-05-20T03:28:23.942Z,10.10
2023-05-20T03:31:12.187Z,7.80
2023-05-20T03:34:00.444Z,12.20
2023-05-20T03:36:48.444Z,11.40
2023-05-20T03:39:36.453Z,8.10
2023-05-20T03:42:25.652Z,11.20
2023-05-20T03:45:13.588Z,10.60
2023-05-20T03:48:07.682Z,12.70
2023-05-20T03:50:56.417Z,13.30
2023-05-20T03:53:44.577Z,8.20
2023-05-20T03:56:32.665Z,9.10
2023-05-20T03:59:21.874Z,10.40
2023-05-20T04:02:09.888Z,9.60
2023-05-20T04:04:58.045Z,11.30
2023-05-20T04:07:46.476Z,9.80
2023-05-20T04:10:35.085Z,10.80
2023-05-20T04:13:24.953Z,10.00
2023-05-20T04:16:13.040Z,10.20
2023-05-20T04:19:02.166Z,12.50
2023-05-20T04:21:50.182Z,11.90
2023-05-20T04:24:38.369Z,8.60
2023-05-20T04:27:26.401Z,10.20
2023-05-20T04:30:16.377Z,9.00
2023-05-20T04:33:04.815Z,10.30
2023-05-20T04:35:52.846Z,10.40
2023-05-20T04:38:41.787Z,10.30
2023-05-20T04:41:30.028Z,9.00
2023-05-20T04:44:17.970Z,8.20
2023-05-20T04:47:07.691Z,9.60
2023-05-20T04:49:57.739Z,11.10
2023-05-20T04:52:45.615Z,13.00
2023-05-20T04:55:33.897Z,9.70
2023-05-20T04:58:26.087Z,9.20
2023-05-20T05:01:14.043Z,9.40
2023-05-20T05:04:03.134Z,15.30
2023-05-20T05:06:51.133Z,11.60
2023-05-20T05:09:39.248Z,10.20
2023-05-20T05:12:27.251Z,9.30
2023-05-20T05:15:16.295Z,8.20
2023-05-20T05:18:04.668Z,10.80
2023-05-20T05:21:03.630Z,11.40
2023-05-20T05:23:51.647Z,9.50
2023-05-20T05:26:40.072Z,10.10
2023-05-20T05:29:28.120Z,10.50
2023-05-20T05:32:16.112Z,8.10
2023-05-20T05:35:06.701Z,8.10
2023-05-20T05:37:56.650Z,10.20
2023-05-20T05:40:45.193Z,10.40
2023-05-20T05:43:33.260Z,10.10
2023-05-20T05:46:21.612Z,8.20
2023-05-20T05:49:09.632Z,9.30
2023-05-20T05:51:57.768Z,8.30
2023-05-20T05:54:46.056Z,6.80
2023-05-20T05:57:34.395Z,9.80
2023-05-20T06:00:22.738Z,9.30
2023-05-20T06:03:10.983Z,9.20
2023-05-20T06:05:59.033Z,9.80
2023-05-20T06:08:47.235Z,12.20
2023-05-20T06:11:36.932Z,6.90
2023-05-20T06:14:24.940Z,8.10
2023-05-20T06:17:13.219Z,7.60
2023-05-20T06:20:03.161Z,9.20
2023-05-20T06:22:51.279Z,10.50
2023-05-20T06:25:40.544Z,8.20
2023-05-20T06:28:30.281Z,9.30
2023-05-20T06:31:19.044Z,8.80
2023-05-20T06:34:07.207Z,9.50
2023-05-20T06:36:55.694Z,8.90
2023-05-20T06:39:43.609Z,9.80
2023-05-20T06:42:32.300Z,7.70
2023-05-20T06:48:17.053Z,7.90
2023-05-20T06:51:08.914Z,6.90
2023-05-20T06:53:57.129Z,9.10
2023-05-20T06:56:45.291Z,9.30
2023-05-20T06:59:33.486Z,7.00
2023-05-20T07:02:22.051Z,8.70
2023-05-20T07:05:10.253Z,6.30
2023-05-20T07:07:58.076Z,6.90
2023-05-20T07:10:46.451Z,7.50
2023-05-20T07:13:37.617Z,8.30
2023-05-20T07:16:25.957Z,7.50
2023-05-20T07:19:15.759Z,8.40
2023-05-20T07:22:04.915Z,9.10
2023-05-20T07:24:56.773Z,7.90
2023-05-20T07:27:45.637Z,8.00
2023-05-20T07:30:34.002Z,6.80
2023-05-20T07:33:38.984Z,10.10
2023-05-20T07:36:27.217Z,8.40
2023-05-20T07:39:15.395Z,8.90
2023-05-20T07:42:03.983Z,8.40
2023-05-20T07:44:51.804Z,8.40
2023-05-20T07:47:40.322Z,9.00
2023-05-20T07:50:29.136Z,8.70
2023-05-20T07:53:17.835Z,10.90
2023-05-20T07:56:06.409Z,7.70
2023-05-20T07:58:56.037Z,7.90
2023-05-20T08:01:46.064Z,8.90
2023-05-20T08:04:36.481Z,7.50
2023-05-20T08:07:24.461Z,8.30
2023-05-20T08:10:14.328Z,6.30
2023-05-20T08:13:03.405Z,7.10
2023-05-20T08:15:55.612Z,12.40
2023-05-20T08:21:34.908Z,10.40
2023-05-20T08:24:22.839Z,9.20
2023-05-20T08:27:10.753Z,8.40
2023-05-20T08:30:00.662Z,6.00
2023-05-20T08:32:49.376Z,11.00
2023-05-20T08:35:38.959Z,8.80
2023-05-20T08:38:27.077Z,10.50
2023-05-20T08:41:15.329Z,9.10
2023-05-20T08:44:04.218Z,8.10
2023-05-20T08:46:53.897Z,8.00
2023-05-20T08:49:42.008Z,5.80
2023-05-20T08:52:30.196Z,5.90
2023-05-20T08:55:23.076Z,7.10
2023-05-20T08:58:11.122Z,6.80
2023-05-20T09:00:59.091Z,5.00
2023-05-20T09:03:47.560Z,5.40
2023-05-20T09:06:46.512Z,5.50
2023-05-20T09:09:34.928Z,5.80
2023-05-20T09:12:23.144Z,5.90
2023-05-20T09:15:11.452Z,6.60
2023-05-20T09:18:03.620Z,5.70
2023-05-20T09:20:55.179Z,7.80
2023-05-20T09:23:47.828Z,6.70
2023-05-20T09:26:36.543Z,7.00
2023-05-20T09:29:25.375Z,6.20
2023-05-20T09:32:13.619Z,4.40
2023-05-20T09:35:03.794Z,5.50
2023-05-20T09:37:54.417Z,6.70
2023-05-20T09:40:41.838Z,7.60
2023-05-20T09:43:29.830Z,6.40
2023-05-20T09:46:17.901Z,4.70
2023-05-20T09:49:07.356Z,9.60
2023-05-20T09:51:56.624Z,6.00
2023-05-20T09:54:45.312Z,8.50
2023-05-20T09:57:37.041Z,6.20
2023-05-20T10:00:24.937Z,8.50
2023-05-20T10:03:13.450Z,6.90
2023-05-20T10:06:33.713Z,4.60
2023-05-20T10:09:40.658Z,7.80
2023-05-20T10:12:59.861Z,8.90
2023-05-20T10:16:30.862Z,5.60
2023-05-20T10:19:56.696Z,6.80
2023-05-20T10:23:10.037Z,5.70
2023-05-20T10:26:25.025Z,4.50
2023-05-20T10:29:42.081Z,6.60
2023-05-20T10:32:58.626Z,7.00
2023-05-20T10:36:17.984Z,7.50
2023-05-20T10:39:32.873Z,5.10
2023-05-20T10:42:53.140Z,6.10
2023-05-20T10:46:34.978Z,5.20
2023-05-20T10:49:51.900Z,7.80
2023-05-20T10:53:09.492Z,7.40
2023-05-20T10:56:27.110Z,6.80
2023-05-20T10:59:42.074Z,5.10
2023-05-20T11:02:56.514Z,6.60
2023-05-20T11:06:12.744Z,4.60
2023-05-20T11:09:30.284Z,5.80
2023-05-20T11:12:45.625Z,5.40
2023-05-20T11:16:01.838Z,4.60
2023-05-20T11:19:16.959Z,5.90
2023-05-20T11:22:33.402Z,8.10
2023-05-20T11:25:48.703Z,5.90
2023-05-20T11:29:47.349Z,6.00
2023-05-20T11:33:49.201Z,8.40
2023-05-20T11:37:47.093Z,4.90
2023-05-20T11:41:48.191Z,5.80
2023-05-20T11:45:46.294Z,7.60
2023-05-20T11:49:47.824Z,5.40
2023-05-20T11:53:46.176Z,5.80
2023-05-20T11:57:47.260Z,4.70
2023-05-20T12:01:45.348Z,8.80
2023-05-20T12:05:47.297Z,4.90
2023-05-20T12:09:47.453Z,8.30
2023-05-20T12:13:49.385Z,7.00
2023-05-20T12:17:47.393Z,6.60
2023-05-20T12:21:48.752Z,9.20
2023-05-20T12:25:47.486Z,8.60
2023-05-20T12:29:50.252Z,5.30
2023-05-20T12:33:48.459Z,6.20
2023-05-20T12:37:49.343Z,6.50
2023-05-20T12:41:47.346Z,4.00
2023-05-20T12:45:49.023Z,4.90
2023-05-20T12:49:47.387Z,4.50
2023-05-20T12:53:46.451Z,6.10
2023-05-20T12:57:42.410Z,4.30
2023-05-20T13:01:41.638Z,7.00
2023-05-20T13:05:37.610Z,4.40
2023-05-20T13:09:38.014Z,5.70
2023-05-20T13:13:33.814Z,6.60
2023-05-20T13:17:33.494Z,3.00
2023-05-20T13:21:28.597Z,3.80
2023-05-20T13:25:27.431Z,5.10
2023-05-20T13:29:22.221Z,5.50
2023-05-20T13:33:21.573Z,3.60
2023-05-20T13:37:16.443Z,2.80
2023-05-20T13:41:16.020Z,5.60
2023-05-20T13:45:11.596Z,5.70
2023-05-20T13:49:10.730Z,3.90
2023-05-20T13:53:06.564Z,3.50
2023-05-20T13:57:06.318Z,4.50
2023-05-20T14:01:01.551Z,4.40
2023-05-20T14:05:00.835Z,6.10
2023-05-20T14:08:56.443Z,5.50
2023-05-20T14:12:56.591Z,4.00
2023-05-20T14:16:51.727Z,7.80
2023-05-20T14:20:50.541Z,6.00
2023-05-20T14:24:45.681Z,5.10
2023-05-20T14:28:44.241Z,5.00
2023-05-20T14:32:39.257Z,7.90
2023-05-20T14:36:38.112Z,4.60
2023-05-20T14:40:34.070Z,5.80
2023-05-20T14:44:33.113Z,3.20
2023-05-20T14:48:28.851Z,9.20
2023-05-20T14:52:27.904Z,4.80
2023-05-20T14:56:23.626Z,6.70
2023-05-20T15:00:22.589Z,9.70
2023-05-20T15:04:17.699Z,6.60
2023-05-20T15:08:16.789Z,4.50
2023-05-20T15:12:11.796Z,4.60
2023-05-20T15:16:10.624Z,3.90
2023-05-20T15:20:05.604Z,5.90
2023-05-20T15:24:04.912Z,5.70
2023-05-20T15:27:59.527Z,4.80
2023-05-20T15:32:00.679Z,7.20
2023-05-20T15:35:56.927Z,5.70
2023-05-20T15:39:56.378Z,5.40
2023-05-20T15:43:51.932Z,10.60
2023-05-20T15:47:51.941Z,8.80
2023-05-20T15:51:55.824Z,6.60
2023-05-20T15:56:01.180Z,9.30
2023-05-20T15:59:56.499Z,5.00
2023-05-20T16:03:58.119Z,6.30
2023-05-20T16:07:53.904Z,4.90
2023-05-20T16:11:53.666Z,5.00
2023-05-20T16:15:48.873Z,10.10
2023-05-20T16:19:48.617Z,5.50
2023-05-20T16:23:43.805Z,4.70
2023-05-20T16:27:42.796Z,7.10
2023-05-20T16:31:37.954Z,12.80
2023-05-20T16:35:36.452Z,6.50
2023-05-20T16:39:31.807Z,4.50
2023-05-20T16:43:31.190Z,7.80
2023-05-20T16:47:27.206Z,4.70
2023-05-20T16:51:26.656Z,5.90
2023-05-20T16:55:21.695Z,13.90
2023-05-20T16:59:21.328Z,5.00
2023-05-20T17:03:17.108Z,5.20
2023-05-20T17:07:16.666Z,12.70
2023-05-20T17:11:11.961Z,8.10
2023-05-20T17:15:10.964Z,5.20
2023-05-20T17:19:05.950Z,5.10
2023-05-20T17:23:05.134Z,4.40
2023-05-20T17:26:59.891Z,4.10
2023-05-20T17:30:59.628Z,4.30
2023-05-20T17:34:54.715Z,8.80
2023-05-20T17:38:54.191Z,9.70
2023-05-20T17:42:49.744Z,5.20
2023-05-20T17:46:49.177Z,5.00
2023-05-20T17:50:43.974Z,2.70
2023-05-20T17:54:43.615Z,4.70
2023-05-20T17:58:38.901Z,4.80
2023-05-20T18:02:37.929Z,4.80
2023-05-20T18:06:33.260Z,6.40
2023-05-20T18:10:32.167Z,6.10
2023-05-20T18:14:28.034Z,5.70
2023-05-20T18:18:27.050Z,3.50
2023-05-20T18:22:21.990Z,5.50
2023-05-20T18:26:21.353Z,5.00
2023-05-20T18:30:17.184Z,4.30
2023-05-20T18:34:16.075Z,2.40
2023-05-20T18:38:11.085Z,4.60
2023-05-20T18:42:09.992Z,5.60
2023-05-20T18:46:05.113Z,4.60
2023-05-20T18:50:04.530Z,4.70
2023-05-20T18:54:00.076Z,3.40
2023-05-20T18:57:58.977Z,7.40
2023-05-20T19:01:54.477Z,3.90
2023-05-20T19:05:53.803Z,4.50
2023-05-20T19:09:49.058Z,4.10
2023-05-20T19:13:48.504Z,2.70
2023-05-20T19:17:44.264Z,3.50
2023-05-20T19:21:42.929Z,3.00
2023-05-20T19:25:37.883Z,5.70
2023-05-20T19:29:37.058Z,1.50
2023-05-20T19:33:32.198Z,2.10
2023-05-20T19:37:31.842Z,1.60
2023-05-20T19:41:27.455Z,1.80
2023-05-20T19:45:26.981Z,5.00
2023-05-20T19:49:22.417Z,2.30
2023-05-20T19:53:22.244Z,4.60
2023-05-20T19:57:16.994Z,1.10
2023-05-20T20:01:16.272Z,4.10
2023-05-20T20:05:11.736Z,4.80
2023-05-20T20:09:10.951Z,2.00
2023-05-20T20:13:06.029Z,1.60
2023-05-20T20:17:05.509Z,4.00
2023-05-20T20:21:01.344Z,2.70
2023-05-20T20:25:00.581Z,3.70
2023-05-20T20:28:56.396Z,1.80
2023-05-20T20:32:55.730Z,2.50
2023-05-20T20:36:51.532Z,2.50
2023-05-20T20:40:51.000Z,4.40
2023-05-20T20:44:46.396Z,2.80
2023-05-20T20:48:46.035Z,3.30
2023-05-20T20:52:43.415Z,3.50
2023-05-20T20:56:43.080Z,4.20
2023-05-20T21:00:38.361Z,4.80
2023-05-20T21:04:37.203Z,1.60
2023-05-20T21:08:32.479Z,3.20
2023-05-20T21:12:31.660Z,3.90
2023-05-20T21:16:26.608Z,3.00
2023-05-20T21:20:26.221Z,0.90
2023-05-20T21:24:21.071Z,1.70
2023-05-20T21:28:20.769Z,2.50
2023-05-20T21:32:16.302Z,2.30
2023-05-20T21:36:15.513Z,1.80
2023-05-20T21:40:10.356Z,2.10
2023-05-20T21:44:09.375Z,3.30
2023-05-20T21:48:04.449Z,2.30
2023-05-20T21:52:03.444Z,3.80
2023-05-20T21:55:59.355Z,3.50
2023-05-20T21:59:58.349Z,3.20
2023-05-20T22:03:53.634Z,3.40
2023-05-20T22:07:52.983Z,3.50
2023-05-20T22:11:48.463Z,4.10
2023-05-20T22:15:47.874Z,5.00
2023-05-20T22:19:43.640Z,5.90
2023-05-20T22:23:42.952Z,4.50
2023-05-20T22:27:38.284Z,2.70
2023-05-20T22:31:37.540Z,3.00
2023-05-20T22:35:32.892Z,7.00
2023-05-20T22:39:32.394Z,1.60
2023-05-20T22:43:27.571Z,3.40
2023-05-20T22:47:26.511Z,4.40
2023-05-20T22:51:21.572Z,3.00
2023-05-20T22:55:20.232Z,4.00
2023-05-20T22:59:15.414Z,5.40
2023-05-20T23:03:15.013Z,4.50
2023-05-20T23:07:10.600Z,1.60
2023-05-20T23:11:10.035Z,3.90
2023-05-20T23:15:05.969Z,2.90
2023-05-20T23:19:04.665Z,3.70
2023-05-20T23:23:05.590Z,2.60
2023-05-20T23:27:10.215Z,4.50
2023-05-20T23:31:05.580Z,1.80
2023-05-20T23:35:04.651Z,5.90
2023-05-20T23:38:59.554Z,3.00
2023-05-20T23:42:58.394Z,3.20
2023-05-20T23:46:53.453Z,3.90
2023-05-20T23:50:53.036Z,1.50
2023-05-20T23:54:48.441Z,3.60
2023-05-20T23:58:47.986Z,4.80
